Time;durP1;ratioP1;P1;durP2;ratioP2;P2;SDS_P1;SDS_P2;PMS_P1;PMS_P2;Temp;Humidity;BMP_temperature;BMP_pressure;BME280_temperature;BME280_humidity;BME280_pressure;Samples;Min_cycle;Max_cycle;Signal;HPM_P1;HPM_P2
2024/04/13 00:03:02;;;;;;;17.15;9.68;;;;;;;15.85;100.00;101481.59;11297201;26;20048;-86
2024/04/13 00:08:26;;;;;;;19.02;10.13;;;;;;;15.81;100.00;101481.56;11276403;26;20017;-87
2024/04/13 00:13:54;;;;;;;23.77;9.90;;;;;;;15.86;100.00;101478.03;11324886;26;20074;-86
2024/04/13 00:19:18;;;;;;;26.40;10.73;;;;;;;15.84;100.00;101485.13;11241334;26;20025;-86
2024/04/13 00:24:44;;;;;;;21.38;10.48;;;;;;;15.83;100.00;101482.44;11282460;26;20068;-86
2024/04/13 00:30:12;;;;;;;22.05;10.27;;;;;;;15.86;100.00;101482.47;11281455;26;20055;-86
2024/04/13 00:35:36;;;;;;;22.13;11.05;;;;;;;15.74;100.00;101475.31;11297823;26;20035;-86
2024/04/13 00:41:00;;;;;;;23.08;10.38;;;;;;;15.70;100.00;101476.16;11310667;26;20002;-86
2024/04/13 00:46:31;;;;;;;21.55;10.73;;;;;;;15.64;100.00;101486.78;11279008;26;19999;-87
2024/04/13 00:51:56;;;;;;;20.88;10.85;;;;;;;15.60;100.00;101481.44;11256404;26;20038;-86
2024/04/13 00:57:20;;;;;;;22.02;10.48;;;;;;;15.61;100.00;101476.13;11266829;26;20002;-86
2024/04/13 01:02:50;;;;;;;19.00;10.13;;;;;;;15.64;100.00;101470.78;11255940;26;20014;-87
2024/04/13 01:08:14;;;;;;;24.33;11.82;;;;;;;15.60;100.00;101474.34;11251904;26;20077;-87
2024/04/13 01:13:40;;;;;;;22.30;10.63;;;;;;;15.59;100.00;101461.00;11276569;26;20002;-87
2024/04/13 01:19:08;;;;;;;18.90;10.80;;;;;;;15.63;100.00;101457.47;11256321;26;20002;-87
2024/04/13 01:24:40;;;;;;;29.63;11.70;;;;;;;15.66;100.00;101454.84;11269734;26;19998;-87
2024/04/13 01:30:05;;;;;;;22.40;11.15;;;;;;;15.59;100.00;101453.91;11276085;26;20013;-84
2024/04/13 01:35:30;;;;;;;25.95;11.63;;;;;;;15.51;100.00;101448.50;11278589;26;20013;-87
2024/04/13 01:40:57;;;;;;;22.95;11.10;;;;;;;15.39;100.00;101451.09;11267876;26;20016;-87
2024/04/13 01:46:23;;;;;;;24.25;11.07;;;;;;;15.29;100.00;101451.91;11260176;26;20026;-86
2024/04/13 01:51:47;;;;;;;18.95;10.23;;;;;;;15.24;100.00;101452.72;11293763;26;19998;-87
2024/04/13 01:57:16;;;;;;;24.83;10.85;;;;;;;15.20;100.00;101459.81;11252681;26;19994;-86
2024/04/13 02:02:42;;;;;;;23.92;11.55;;;;;;;15.05;100.00;101441.97;11281142;26;20002;-87
2024/04/13 02:08:06;;;;;;;22.13;11.90;;;;;;;15.13;100.00;101450.91;11270275;26;20457;-87
2024/04/13 02:13:34;;;;;;;20.30;11.45;;;;;;;15.34;100.00;101449.28;11282678;26;20319;-87
2024/04/13 02:18:59;;;;;;;21.95;10.60;;;;;;;15.42;100.00;101442.25;11255478;26;20003;-87
2024/04/13 02:24:24;;;;;;;16.70;10.00;;;;;;;15.22;100.00;101436.78;11272139;26;20034;-87
2024/04/13 02:29:53;;;;;;;19.80;9.65;;;;;;;15.08;100.00;101442.00;11276665;26;19998;-88
2024/04/13 02:35:17;;;;;;;15.20;9.75;;;;;;;15.00;100.00;101437.50;11241403;26;20045;-87
2024/04/13 02:40:41;;;;;;;18.60;10.38;;;;;;;15.01;100.00;101442.81;11271677;26;20506;-87
2024/04/13 02:46:10;;;;;;;21.00;11.00;;;;;;;15.01;100.00;101444.59;11279903;26;20329;-85
2024/04/13 02:51:34;;;;;;;19.30;10.35;;;;;;;15.03;100.00;101448.16;11276380;26;20077;-88
2024/04/13 02:56:58;;;;;;;24.23;11.40;;;;;;;15.01;100.00;101455.22;11320227;26;19999;-86
2024/04/13 03:02:26;;;;;;;16.73;10.10;;;;;;;14.84;100.00;101462.13;11265901;26;20338;-87
2024/04/13 03:07:50;;;;;;;25.47;11.70;;;;;;;14.88;100.00;101472.84;11266655;26;20013;-87
2024/04/13 03:13:15;;;;;;;22.60;11.30;;;;;;;15.01;100.00;101465.88;11298565;26;20518;-88
2024/04/13 03:18:43;;;;;;;22.27;11.35;;;;;;;15.01;100.00;101472.06;11263939;26;20031;-87
2024/04/13 03:24:08;;;;;;;17.98;11.38;;;;;;;14.98;100.00;101463.16;11266291;26;20448;-88
2024/04/13 03:29:32;;;;;;;26.38;10.82;;;;;;;14.90;100.00;101468.41;11294812;26;20003;-86
2024/04/13 03:34:59;;;;;;;22.88;12.45;;;;;;;14.91;100.00;101475.50;11275660;26;20766;-88
2024/04/13 03:40:23;;;;;;;25.23;11.90;;;;;;;14.93;100.00;101476.44;11266269;26;20002;-88
2024/04/13 03:45:57;;;;;;;22.42;12.68;;;;;;;15.05;100.00;101479.19;11267940;26;20014;-88
2024/04/13 03:51:23;;;;;;;20.58;11.27;;;;;;;15.18;100.00;101474.88;11301489;26;20002;-87
2024/04/13 03:56:48;;;;;;;19.13;11.27;;;;;;;15.28;100.00;101470.53;11258569;26;20002;-87
2024/04/13 04:02:12;;;;;;;26.13;11.20;;;;;;;15.31;100.00;101483.81;11294834;26;20006;-87
2024/04/13 04:07:40;;;;;;;18.05;10.82;;;;;;;15.46;100.00;101481.28;11264925;26;20006;-89
2024/04/13 04:13:05;;;;;;;20.90;11.27;;;;;;;15.52;100.00;101491.97;11259827;26;20462;-88
2024/04/13 04:18:29;;;;;;;25.50;9.93;;;;;;;15.72;100.00;101486.81;11311037;26;20070;-88
2024/04/13 04:23:59;;;;;;;21.58;9.90;;;;;;;15.96;100.00;101500.28;11278268;26;20074;-89
2024/04/13 04:29:25;;;;;;;14.88;9.23;;;;;;;16.15;100.00;101496.81;11294754;26;20002;-89
2024/04/13 04:34:50;;;;;;;19.90;8.43;;;;;;;16.51;100.00;101498.75;11257743;26;20670;-90
2024/04/13 04:40:16;;;;;;;14.60;8.18;;;;;;;16.92;100.00;101506.00;11266998;26;19995;-88
2024/04/13 04:45:41;;;;;;;24.60;9.57;;;;;;;17.24;100.00;101516.69;11262303;26;19999;-89
2024/04/13 04:51:05;;;;;;;19.33;8.45;;;;;;;17.69;100.00;101499.78;11273673;26;20348;-87
2024/04/13 04:56:34;;;;;;;16.23;8.07;;;;;;;18.15;100.00;101508.56;11289238;26;20002;-88
2024/04/13 05:01:58;;;;;;;17.65;7.45;;;;;;;18.59;100.00;101501.25;11282925;26;20064;-86
2024/04/13 05:07:23;;;;;;;20.35;8.10;;;;;;;19.14;100.00;101513.41;11292958;26;20002;-87
2024/04/13 05:12:49;;;;;;;17.88;7.88;;;;;;;19.79;100.00;101507.50;11256741;26;20342;-89
2024/04/13 05:18:14;;;;;;;17.67;6.93;;;;;;;20.33;100.00;101507.81;11313970;26;20003;-87
2024/04/13 05:23:39;;;;;;;18.67;6.78;;;;;;;20.78;100.00;101500.94;11309536;26;20012;-89
2024/04/13 05:29:07;;;;;;;23.25;7.32;;;;;;;21.27;100.00;101493.91;11291212;26;20457;-88
2024/04/13 05:34:31;;;;;;;20.67;7.57;;;;;;;21.81;100.00;101493.84;11266628;26;20002;-88
2024/04/13 05:39:56;;;;;;;17.65;6.57;;;;;;;22.31;100.00;101490.19;11310661;26;20002;-88
2024/04/13 05:45:24;;;;;;;20.17;7.47;;;;;;;22.81;100.00;101485.53;11295716;26;20014;-84
2024/04/13 05:50:55;;;;;;;12.55;7.22;;;;;;;23.30;100.00;101474.44;11301408;26;20078;-88
2024/04/13 05:56:19;;;;;;;20.42;6.85;;;;;;;23.73;100.00;101466.13;11263111;26;20073;-88
2024/04/13 06:01:46;;;;;;;15.23;7.60;;;;;;;24.17;100.00;101473.84;11254256;26;20003;-87
2024/04/13 06:07:11;;;;;;;12.18;6.40;;;;;;;24.55;100.00;101474.53;11259758;26;20011;-86
2024/04/13 06:12:35;;;;;;;13.60;6.50;;;;;;;24.80;94.11;101480.09;11270334;26;20006;-87
2024/04/13 06:18:02;;;;;;;16.83;6.82;;;;;;;25.05;88.24;101491.91;11327826;26;19998;-88
2024/04/13 06:23:26;;;;;;;;;;;;;;;25.28;84.25;101492.00;11254469;26;20034;-87
2024/04/13 06:28:52;;;;;;;17.58;6.72;;;;;;;25.57;76.03;101504.59;11312381;26;19924;-87
2024/04/13 06:34:23;;;;;;;18.42;6.07;;;;;;;25.96;74.47;101505.00;11279976;26;20017;-86
2024/04/13 06:39:48;;;;;;;16.48;5.82;;;;;;;26.44;73.56;101510.44;11251559;26;20078;-87
2024/04/13 06:45:13;;;;;;;12.50;6.22;;;;;;;26.66;64.80;101526.75;11284368;26;19998;-87
2024/04/13 06:50:40;;;;;;;13.38;6.78;;;;;;;26.75;65.92;101542.66;11251019;26;19999;-87
2024/04/13 06:56:09;;;;;;;19.23;6.25;;;;;;;27.07;65.43;101552.25;11302367;26;20002;-84
2024/04/13 07:01:33;;;;;;;17.55;6.90;;;;;;;27.21;62.10;101554.41;11334439;26;20106;-87
2024/04/13 07:07:01;;;;;;;15.65;6.63;;;;;;;27.36;59.69;101559.22;11345905;26;20018;-88
2024/04/13 07:12:29;;;;;;;16.60;6.43;;;;;;;27.66;57.72;101563.38;11324326;26;20002;-89
2024/04/13 07:17:58;;;;;;;18.15;7.18;;;;;;;27.95;54.23;101562.13;11252256;26;19994;-86
2024/04/13 07:23:25;;;;;;;13.88;6.05;;;;;;;28.01;51.94;101564.56;11290680;26;19998;-86
2024/04/13 07:28:49;;;;;;;14.40;5.80;;;;;;;28.28;50.77;101564.34;11322433;26;20006;-86
2024/04/13 07:34:13;;;;;;;14.05;6.30;;;;;;;28.50;48.88;101576.84;11371604;26;20003;-87
2024/04/13 07:39:40;;;;;;;23.50;6.75;;;;;;;28.80;47.64;101566.44;11331349;26;20541;-87
2024/04/13 07:45:05;;;;;;;21.52;6.78;;;;;;;28.77;46.24;101573.84;11311433;26;20012;-88
2024/04/13 07:50:29;;;;;;;18.30;7.00;;;;;;;28.92;46.03;101576.72;11355995;26;20049;-88
2024/04/13 07:55:56;;;;;;;17.58;6.07;;;;;;;29.14;45.89;101575.69;11327693;26;20425;-89
2024/04/13 08:01:20;;;;;;;14.10;6.13;;;;;;;29.19;45.12;101576.34;11268658;26;19994;-87
2024/04/13 08:06:44;;;;;;;17.20;6.13;;;;;;;29.30;44.34;101580.31;11269637;26;20511;-89
2024/04/13 08:12:12;;;;;;;15.13;5.63;;;;;;;29.41;43.25;101582.50;11267406;26;20009;-90
2024/04/13 08:17:36;;;;;;;9.85;5.90;;;;;;;29.54;42.99;101572.78;11320822;26;20020;-88
2024/04/13 08:23:01;;;;;;;18.65;5.88;;;;;;;30.06;42.38;101579.19;11227040;26;20018;-89
2024/04/13 08:28:28;;;;;;;17.23;6.50;;;;;;;30.32;41.04;101580.53;11253246;26;20014;-89
2024/04/13 08:33:53;;;;;;;13.50;6.28;;;;;;;30.35;39.84;101588.53;11230083;26;20002;-87
2024/04/13 08:39:18;;;;;;;14.57;5.50;;;;;;;30.40;39.28;101580.09;11303296;26;20071;-88
2024/04/13 08:44:45;;;;;;;10.77;5.60;;;;;;;30.62;37.73;101568.97;11294955;26;20052;-88
2024/04/13 08:50:11;;;;;;;16.13;6.60;;;;;;;30.58;38.17;101573.72;11295924;26;20007;-89
2024/04/13 08:55:37;;;;;;;12.90;5.47;;;;;;;30.94;37.81;101543.50;11251726;26;20021;-90
2024/04/13 09:01:05;;;;;;;13.05;6.05;;;;;;;30.98;37.74;101550.56;11313867;26;20002;-88
2024/04/13 09:06:31;;;;;;;10.70;7.07;;;;;;;31.00;38.18;101547.72;11256781;26;20447;-89
2024/04/13 09:11:57;;;;;;;16.07;6.30;;;;;;;31.20;37.75;101544.75;11327191;26;20009;-88
2024/04/13 09:17:24;;;;;;;12.80;6.00;;;;;;;31.40;37.22;101543.59;11330313;26;20010;-89
2024/04/13 09:22:49;;;;;;;12.00;6.15;;;;;;;31.53;36.96;101537.31;11325219;26;20002;-89
2024/04/13 09:28:17;;;;;;;15.52;6.38;;;;;;;31.46;36.05;101532.31;11318659;26;19997;-87
2024/04/13 09:33:50;;;;;;;15.98;5.63;;;;;;;31.67;35.58;101542.88;11401028;26;20069;-88
2024/04/13 09:39:22;;;;;;;13.60;5.68;;;;;;;31.95;35.24;101541.19;11275339;26;20003;-88
2024/04/13 09:44:47;;;;;;;9.63;5.57;;;;;;;32.25;35.03;101539.31;11256584;26;20025;-89
2024/04/13 09:50:14;;;;;;;13.65;5.95;;;;;;;32.08;34.63;101533.13;11269540;26;20054;-87
2024/04/13 09:55:38;;;;;;;13.80;5.78;;;;;;;32.17;35.10;101543.50;11359507;26;20396;-87
2024/04/13 10:01:04;;;;;;;15.30;5.63;;;;;;;32.27;35.01;101537.38;11329745;26;20334;-87
2024/04/13 10:06:35;;;;;;;10.90;4.90;;;;;;;32.11;34.85;101533.81;11307199;26;20003;-93
2024/04/13 10:12:01;;;;;;;15.75;6.28;;;;;;;31.80;35.23;101534.81;11277131;26;20058;-85
2024/04/13 10:17:26;;;;;;;11.27;5.20;;;;;;;32.03;35.40;101525.22;11257097;26;19999;-87
2024/04/13 10:23:03;;;;;;;11.03;5.77;;;;;;;32.25;35.23;101527.50;11279343;26;19998;-83
2024/04/13 10:28:27;;;;;;;14.32;6.15;;;;;;;32.23;34.72;101524.00;11253088;26;20007;-87
2024/04/13 10:34:02;;;;;;;12.82;5.78;;;;;;;32.15;34.87;101527.22;11253508;26;19999;-87
2024/04/13 10:39:30;;;;;;;12.77;6.30;;;;;;;32.02;34.66;101509.78;11310470;26;20009;-89
2024/04/13 10:44:54;;;;;;;10.90;5.70;;;;;;;31.93;34.61;101519.44;11362959;26;20226;-90
2024/04/13 10:50:20;;;;;;;11.35;5.65;;;;;;;31.93;34.52;101504.88;11343999;26;19999;-89
2024/04/13 10:55:49;;;;;;;12.77;5.65;;;;;;;31.65;34.05;101517.50;11365906;26;20410;-92
2024/04/13 11:01:14;;;;;;;11.00;5.75;;;;;;;31.22;34.10;101504.63;11366713;26;20685;-93
2024/04/13 11:06:41;;;;;;;16.08;6.10;;;;;;;31.04;34.85;101495.63;11390521;26;20434;-94
2024/04/13 11:12:14;;;;;;;16.60;6.38;;;;;;;30.83;35.43;101492.28;11346485;26;20002;-95
2024/04/13 11:17:38;;;;;;;10.75;5.93;;;;;;;30.89;35.34;101483.75;11350153;26;20386;-93
2024/04/13 11:23:04;;;;;;;11.93;6.57;;;;;;;30.96;34.93;101472.47;11362339;26;19998;-94
2024/04/13 11:28:34;;;;;;;14.75;6.25;;;;;;;30.80;35.13;101467.00;11334556;26;20005;-94
2024/04/13 11:33:59;;;;;;;11.10;6.20;;;;;;;30.65;35.78;101473.38;11310988;26;20013;-93
2024/04/13 11:39:24;;;;;;;17.37;6.70;;;;;;;30.65;36.40;101466.06;11277819;26;20351;-93
2024/04/13 11:44:52;;;;;;;12.63;6.20;;;;;;;30.34;37.13;101475.03;11268901;26;19998;-95
2024/04/13 11:50:17;;;;;;;16.13;6.18;;;;;;;30.25;37.25;101469.22;11280163;26;20485;-94
2024/04/13 11:55:42;;;;;;;17.45;8.57;;;;;;;30.23;37.45;101463.84;11277626;26;20016;-93
2024/04/13 12:01:09;;;;;;;16.88;6.72;;;;;;;30.10;37.85;101465.50;11299041;26;20451;-91
2024/04/13 12:06:33;;;;;;;15.45;7.45;;;;;;;29.89;38.04;101478.38;11246976;26;20026;-90
2024/04/13 12:11:58;;;;;;;15.27;7.00;;;;;;;29.41;38.54;101465.50;11287606;26;20061;-91
2024/04/13 12:17:25;;;;;;;17.40;7.40;;;;;;;29.22;38.53;101464.66;11274029;26;20002;-93
2024/04/13 12:22:49;;;;;;;24.40;11.52;;;;;;;28.96;39.25;101465.94;11346906;26;19998;-92
2024/04/13 12:28:13;;;;;;;17.88;7.35;;;;;;;28.90;39.38;101464.41;11370622;26;20022;-92
2024/04/13 12:33:41;;;;;;;13.10;6.38;;;;;;;28.85;39.09;101460.16;11341888;26;20006;-92
2024/04/13 12:39:09;;;;;;;14.93;6.22;;;;;;;28.51;39.83;101460.88;11325087;26;20034;-93
2024/04/13 12:44:34;;;;;;;10.30;6.10;;;;;;;28.38;40.25;101460.59;11302035;26;20010;-93
2024/04/13 12:50:02;;;;;;;26.35;6.68;;;;;;;28.23;41.15;101450.44;11315186;26;20019;-93
2024/04/13 12:55:27;;;;;;;17.90;6.88;;;;;;;27.88;42.28;101441.19;11301767;26;20009;-93
2024/04/13 13:00:52;;;;;;;10.93;6.22;;;;;;;27.77;42.45;101448.91;11318654;26;20012;-93
2024/04/13 13:06:19;;;;;;;13.23;6.30;;;;;;;27.75;42.32;101434.53;11326507;26;20052;-92
2024/04/13 13:11:43;;;;;;;;;;;;;;;27.64;42.52;101426.88;11325099;26;20042;-94
2024/04/13 13:17:07;;;;;;;15.85;6.35;;;;;;;27.36;43.06;101405.50;11325450;26;19959;-91
2024/04/13 13:22:35;;;;;;;16.30;6.40;;;;;;;27.23;43.31;101400.66;11252041;26;19998;-93
2024/04/13 13:27:59;;;;;;;15.25;6.13;;;;;;;27.01;43.10;101406.09;11226153;26;19999;-95
2024/04/13 13:33:24;;;;;;;14.90;7.05;;;;;;;27.08;42.85;101418.47;11250650;26;20026;-94
2024/04/13 13:38:51;;;;;;;15.38;6.82;;;;;;;27.15;42.94;101417.25;11225948;26;20459;-91
2024/04/13 13:44:15;;;;;;;25.17;13.40;;;;;;;27.15;43.18;101422.69;11275965;26;20071;-94
2024/04/13 13:49:39;;;;;;;13.68;7.30;;;;;;;27.19;42.85;101426.13;11268236;26;19999;-93
2024/04/13 13:55:06;;;;;;;18.88;7.18;;;;;;;27.12;43.11;101425.50;11324295;26;20048;-93
2024/04/13 14:00:31;;;;;;;14.00;6.35;;;;;;;26.96;43.47;101427.13;11260278;26;20064;-92
2024/04/13 14:05:55;;;;;;;12.60;6.53;;;;;;;26.82;44.22;101422.22;11248848;26;20036;-93
2024/04/13 14:11:22;;;;;;;14.68;6.30;;;;;;;26.70;44.57;101428.16;11231640;26;20057;-91
2024/04/13 14:16:48;;;;;;;14.98;6.57;;;;;;;26.75;44.94;101434.25;11328776;26;20453;-92
2024/04/13 14:22:12;;;;;;;15.80;7.20;;;;;;;26.82;44.99;101427.66;11280554;26;20046;-91
2024/04/13 14:27:40;;;;;;;12.55;6.38;;;;;;;26.86;44.71;101437.41;11255907;26;20003;-93
2024/04/13 14:33:05;;;;;;;16.50;6.20;;;;;;;26.85;44.55;101440.16;11255694;26;20631;-93
2024/04/13 14:38:30;;;;;;;16.73;6.55;;;;;;;26.78;44.34;101447.66;11301420;26;20039;-94
2024/04/13 14:43:57;;;;;;;22.33;6.95;;;;;;;26.85;44.44;101438.34;11305804;26;20073;-95
2024/04/13 14:49:21;;;;;;;16.00;6.05;;;;;;;26.72;44.33;101436.19;11330059;26;20078;-93
2024/04/13 14:54:45;;;;;;;19.15;6.85;;;;;;;26.48;44.70;101438.97;11304257;26;20600;-93
2024/04/13 15:00:13;;;;;;;15.18;6.43;;;;;;;26.39;44.95;101447.44;11255064;26;20044;-95
2024/04/13 15:05:37;;;;;;;14.95;6.70;;;;;;;26.13;45.24;101455.63;11230845;26;20027;-96
2024/04/13 15:11:02;;;;;;;15.15;6.28;;;;;;;25.76;45.14;101450.72;11255402;26;20839;-95
2024/04/13 15:16:29;;;;;;;20.88;6.63;;;;;;;25.47;45.84;101442.72;11249040;26;20003;-95
2024/04/13 15:21:53;;;;;;;16.67;6.60;;;;;;;25.20;45.98;101442.75;11326898;26;20010;-94
2024/04/13 15:27:17;;;;;;;11.63;7.70;;;;;;;25.10;47.40;101443.97;11328512;26;20002;-96
2024/04/13 15:32:45;;;;;;;17.40;8.52;;;;;;;24.99;49.63;101448.88;11304515;26;20532;-93
2024/04/13 15:38:09;;;;;;;17.15;7.68;;;;;;;24.79;52.49;101454.88;11328310;26;20038;-94
2024/04/13 15:43:33;;;;;;;19.55;10.52;;;;;;;24.71;54.61;101456.06;11327742;26;19998;-93
2024/04/13 15:49:00;;;;;;;27.52;14.57;;;;;;;24.50;60.44;101447.69;11336329;26;20053;-93
2024/04/13 15:54:24;;;;;;;22.45;9.10;;;;;;;24.25;63.64;101452.06;11378852;26;20005;-93
2024/04/13 15:59:50;;;;;;;17.85;8.18;;;;;;;24.13;63.12;101453.28;11354639;26;20006;-92
2024/04/13 16:05:17;;;;;;;19.73;8.73;;;;;;;23.99;62.64;101460.00;11357526;26;20025;-92
2024/04/13 16:10:43;;;;;;;21.70;9.30;;;;;;;23.95;62.32;101450.25;11335209;26;20003;-91
2024/04/13 16:16:08;;;;;;;22.15;10.45;;;;;;;23.86;63.11;101458.59;11205374;26;20003;-91
2024/04/13 16:21:35;;;;;;;14.88;7.55;;;;;;;23.73;64.42;101458.03;11191401;26;20003;-93
2024/04/13 16:26:59;;;;;;;;;;;;;;;23.69;64.12;101465.34;11216773;26;19999;-90
2024/04/13 16:32:25;;;;;;;13.00;7.45;;;;;;;23.42;65.26;101447.19;11185321;26;20434;-93
2024/04/13 16:37:51;;;;;;;20.05;7.80;;;;;;;23.31;66.33;101460.03;11207539;26;20498;-92
2024/04/13 16:43:18;;;;;;;19.58;8.25;;;;;;;23.21;66.17;101458.50;11309091;26;20079;-95
2024/04/13 16:48:42;;;;;;;18.15;8.10;;;;;;;22.94;68.79;101471.72;11236679;26;20077;-94
2024/04/13 16:54:09;;;;;;;19.98;8.50;;;;;;;22.86;71.27;101479.09;11294148;26;23992;-95
2024/04/13 16:59:34;;;;;;;18.73;8.18;;;;;;;22.75;74.62;101474.91;11219744;26;20013;-93
2024/04/13 17:04:58;;;;;;;17.27;8.40;;;;;;;22.69;76.56;101465.13;11233875;26;19999;-89
2024/04/13 17:10:28;;;;;;;16.58;8.43;;;;;;;22.57;80.24;101470.78;11258423;26;19998;-91
2024/04/13 17:15:52;;;;;;;16.00;7.90;;;;;;;22.46;80.70;101467.44;11259050;26;20043;-90
2024/04/13 17:21:16;;;;;;;16.52;7.70;;;;;;;22.38;86.21;101477.50;11298018;26;20004;-84
2024/04/13 17:26:44;;;;;;;20.60;8.57;;;;;;;22.35;89.05;101480.25;11266531;26;19999;-87
2024/04/13 17:32:09;;;;;;;22.77;9.50;;;;;;;22.26;92.87;101474.13;11264152;26;20009;-88
2024/04/13 17:37:33;;;;;;;18.98;9.68;;;;;;;22.14;95.51;101477.06;11293238;26;20021;-88
2024/04/13 17:43:01;;;;;;;24.08;10.30;;;;;;;22.05;96.68;101476.41;11278674;26;20397;-93
2024/04/13 17:48:25;;;;;;;17.30;7.90;;;;;;;22.00;96.29;101478.28;11240716;26;20003;-84
2024/04/13 17:53:49;;;;;;;16.02;8.60;;;;;;;21.95;96.16;101469.38;11315654;26;20002;-89
2024/04/13 17:59:16;;;;;;;20.65;9.20;;;;;;;21.96;96.87;101481.94;11269765;26;19998;-90
2024/04/13 18:04:41;;;;;;;25.17;9.20;;;;;;;21.93;97.68;101485.53;11279725;26;20448;-92
2024/04/13 18:10:05;;;;;;;16.33;8.63;;;;;;;21.86;100.00;101491.94;11260880;26;20010;-87
2024/04/13 18:15:32;;;;;;;22.45;8.95;;;;;;;21.81;100.00;101501.91;11239151;26;20003;-91
2024/04/13 18:20:57;;;;;;;17.38;8.20;;;;;;;21.77;100.00;101508.28;11306496;26;20353;-93
2024/04/13 18:26:22;;;;;;;20.23;9.05;;;;;;;21.73;100.00;101501.16;11246023;26;19994;-94
2024/04/13 18:31:51;;;;;;;21.25;8.45;;;;;;;21.71;100.00;101497.63;11268286;26;20331;-91
2024/04/13 18:37:15;;;;;;;21.80;12.07;;;;;;;21.64;100.00;101515.69;11259628;26;20015;-89
2024/04/13 18:42:39;;;;;;;20.00;11.18;;;;;;;21.64;100.00;101515.69;11261256;26;20039;-90
2024/04/13 18:48:07;;;;;;;21.63;9.02;;;;;;;21.61;100.00;101522.88;11290639;26;20047;-93
2024/04/13 18:53:31;;;;;;;25.45;9.35;;;;;;;21.57;100.00;101518.50;11286592;26;20541;-90
2024/04/13 18:58:55;;;;;;;20.70;9.95;;;;;;;21.52;100.00;101517.69;11242508;26;20002;-93
2024/04/13 19:04:23;;;;;;;20.95;11.35;;;;;;;21.55;100.00;101520.31;11306446;26;20002;-94
2024/04/13 19:09:47;;;;;;;20.98;10.02;;;;;;;21.50;100.00;101551.75;11289361;26;20027;-89
2024/04/13 19:15:12;;;;;;;25.45;13.45;;;;;;;21.44;100.00;101524.09;11292912;26;20012;-93
2024/04/13 19:20:39;;;;;;;13.85;9.35;;;;;;;21.46;100.00;101546.41;11285433;26;19999;-85
2024/04/13 19:26:03;;;;;;;22.80;11.13;;;;;;;21.44;100.00;101548.25;11319451;26;20073;-89
2024/04/13 19:31:28;;;;;;;20.65;8.45;;;;;;;21.41;100.00;101544.72;11328813;26;19997;-93
2024/04/13 19:36:55;;;;;;;20.08;9.00;;;;;;;21.38;100.00;101531.34;11336266;26;20012;-89
2024/04/13 19:42:19;;;;;;;16.63;10.03;;;;;;;21.30;100.00;101536.84;11347771;26;20446;-89
2024/04/13 19:47:43;;;;;;;16.05;7.68;;;;;;;21.29;100.00;101515.38;11358933;26;20016;-90
2024/04/13 19:53:10;;;;;;;16.40;7.60;;;;;;;21.34;100.00;101524.25;11339893;26;20005;-89
2024/04/13 19:58:34;;;;;;;14.98;7.65;;;;;;;21.32;100.00;101521.59;11327869;26;20017;-90
2024/04/13 20:03:59;;;;;;;18.17;7.50;;;;;;;21.30;100.00;101525.22;11394582;26;20020;-90
2024/04/13 20:09:26;;;;;;;21.80;8.18;;;;;;;21.31;100.00;101519.81;11323013;26;19997;-91
2024/04/13 20:20:27;;;;;;;15.02;7.80;;;;;;;21.18;100.00;101507.50;11322435;26;20009;-90
2024/04/13 20:25:54;;;;;;;20.77;7.90;;;;;;;21.19;100.00;101509.28;11329278;26;20033;-89
2024/04/13 20:31:18;;;;;;;17.95;8.65;;;;;;;21.02;100.00;101513.97;11331033;26;20010;-89
2024/04/13 20:36:43;;;;;;;13.15;7.40;;;;;;;20.86;100.00;101512.44;11340337;26;20034;-90
2024/04/13 20:42:11;;;;;;;13.05;7.05;;;;;;;20.85;100.00;101510.66;11316462;26;20303;-88
2024/04/13 20:47:36;;;;;;;17.17;7.57;;;;;;;20.93;100.00;101504.28;11354317;26;20057;-90
2024/04/13 20:53:00;;;;;;;21.60;7.68;;;;;;;20.91;100.00;101499.84;11324990;26;20009;-90
2024/04/13 20:58:27;;;;;;;11.05;7.00;;;;;;;20.91;100.00;101487.31;11346773;26;19998;-89
2024/04/13 21:03:52;;;;;;;14.15;7.45;;;;;;;20.86;99.88;101491.88;11318851;26;20079;-89
2024/04/13 21:09:16;;;;;;;12.60;7.10;;;;;;;20.84;99.64;101490.09;11301193;26;20013;-91
2024/04/13 21:14:44;;;;;;;11.88;7.18;;;;;;;20.86;99.20;101488.28;11345425;26;20012;-89
2024/04/13 21:20:09;;;;;;;17.13;7.07;;;;;;;20.76;99.82;101492.91;11271253;26;20031;-89
2024/04/13 21:25:33;;;;;;;16.77;7.15;;;;;;;20.75;99.35;101483.06;11251171;26;19999;-90
2024/04/13 21:31:00;;;;;;;14.32;7.28;;;;;;;20.77;99.15;101483.06;11301633;26;19998;-89
2024/04/13 21:36:26;;;;;;;16.90;7.10;;;;;;;20.80;99.01;101483.03;11329737;26;20002;-90
2024/04/13 21:41:51;;;;;;;14.27;6.85;;;;;;;20.82;98.77;101474.00;11328894;26;20008;-88
2024/04/13 21:47:19;;;;;;;13.75;6.68;;;;;;;20.82;99.27;101479.38;11291697;26;20012;-89
2024/04/13 21:52:43;;;;;;;15.80;6.75;;;;;;;20.84;99.36;101464.16;11304767;26;20002;-90
2024/04/13 21:58:07;;;;;;;15.73;6.68;;;;;;;20.83;100.00;101467.75;11345811;26;20001;-87
2024/04/13 22:03:35;;;;;;;15.90;6.40;;;;;;;20.85;100.00;101465.03;11312951;26;20006;-88
2024/04/13 22:08:59;;;;;;;12.97;6.57;;;;;;;20.83;100.00;101461.47;11362753;26;19993;-89
2024/04/13 22:14:24;;;;;;;9.77;6.65;;;;;;;20.82;100.00;101451.66;11356243;26;20006;-88
2024/04/13 22:19:53;;;;;;;14.43;6.82;;;;;;;20.82;100.00;101440.91;11327251;26;20012;-88
2024/04/13 22:25:20;;;;;;;12.18;6.50;;;;;;;20.78;100.00;101441.88;11307924;26;19997;-89
2024/04/13 22:30:45;;;;;;;9.70;6.35;;;;;;;20.77;100.00;101449.06;11368033;26;20430;-87
2024/04/13 22:36:14;;;;;;;14.95;6.40;;;;;;;20.79;100.00;101440.97;11318805;26;20002;-88
2024/04/13 22:41:38;;;;;;;14.97;6.60;;;;;;;20.75;100.00;101428.50;11358624;26;20002;-87
2024/04/13 22:47:02;;;;;;;13.55;6.18;;;;;;;20.74;100.00;101424.06;11341900;26;20257;-88
2024/04/13 22:52:29;;;;;;;11.35;6.43;;;;;;;20.72;100.00;101412.47;11374236;26;20013;-88
2024/04/13 22:57:54;;;;;;;13.43;6.47;;;;;;;20.72;100.00;101410.66;11362704;26;20005;-89
2024/04/13 23:03:19;;;;;;;14.02;6.75;;;;;;;20.72;100.00;101407.97;11314897;26;19998;-89
2024/04/13 23:08:46;;;;;;;14.52;6.90;;;;;;;20.74;100.00;101399.91;11334402;26;20026;-88
2024/04/13 23:14:10;;;;;;;15.13;6.73;;;;;;;20.71;100.00;101406.22;11346384;26;19998;-88
2024/04/13 23:19:34;;;;;;;14.35;6.15;;;;;;;20.68;100.00;101407.13;11343814;26;20001;-86
2024/04/13 23:25:01;;;;;;;13.63;6.20;;;;;;;20.71;100.00;101391.91;11398288;26;20001;-85
2024/04/13 23:30:26;;;;;;;13.15;6.22;;;;;;;20.72;100.00;101385.63;11325936;26;20001;-85
2024/04/13 23:36:00;;;;;;;14.13;6.32;;;;;;;20.77;100.00;101391.81;11338483;26;20017;-87
2024/04/13 23:41:27;;;;;;;13.05;6.50;;;;;;;20.74;100.00;101390.06;11373742;26;20454;-87
2024/04/13 23:46:51;;;;;;;16.47;6.70;;;;;;;20.73;100.00;101390.97;11327239;26;20013;-88
2024/04/13 23:52:16;;;;;;;11.25;6.60;;;;;;;20.75;100.00;101404.34;11383080;26;19993;-89
2024/04/13 23:57:44;;;;;;;18.70;7.18;;;;;;;20.74;100.00;101410.66;11364751;26;20016;-88
